sensor_id;sensor_type;location;lat;lon;timestamp;P1;durP1;ratioP1;P2;durP2;ratioP2
23712;SDS011;12035;49.978;8.298;2022-09-03T00:01:58;2.13;;;0.70;;
23712;SDS011;12035;49.978;8.298;2022-09-03T00:07:03;1.53;;;0.80;;
23712;SDS011;12035;49.978;8.298;2022-09-03T00:12:10;2.33;;;0.80;;
23712;SDS011;12035;49.978;8.298;2022-09-03T00:17:15;1.48;;;0.70;;
23712;SDS011;12035;49.978;8.298;2022-09-03T00:22:16;3.40;;;0.80;;
23712;SDS011;12035;49.978;8.298;2022-09-03T00:27:20;3.08;;;0.80;;
23712;SDS011;12035;49.978;8.298;2022-09-03T00:32:23;1.58;;;0.80;;
23712;SDS011;12035;49.978;8.298;2022-09-03T00:37:29;1.23;;;0.70;;
23712;SDS011;12035;49.978;8.298;2022-09-03T00:42:30;2.35;;;0.90;;
23712;SDS011;12035;49.978;8.298;2022-09-03T00:47:43;3.55;;;0.90;;
23712;SDS011;12035;49.978;8.298;2022-09-03T00:52:53;1.35;;;0.60;;
23712;SDS011;12035;49.978;8.298;2022-09-03T00:58:01;1.63;;;0.70;;
23712;SDS011;12035;49.978;8.298;2022-09-03T01:03:13;1.90;;;0.70;;
23712;SDS011;12035;49.978;8.298;2022-09-03T01:08:27;2.97;;;0.68;;
23712;SDS011;12035;49.978;8.298;2022-09-03T01:13:39;1.20;;;0.70;;
23712;SDS011;12035;49.978;8.298;2022-09-03T01:18:43;4.22;;;1.00;;
23712;SDS011;12035;49.978;8.298;2022-09-03T01:23:54;2.47;;;1.00;;
23712;SDS011;12035;49.978;8.298;2022-09-03T01:29:11;1.52;;;0.73;;
23712;SDS011;12035;49.978;8.298;2022-09-03T01:34:19;1.15;;;0.60;;
23712;SDS011;12035;49.978;8.298;2022-09-03T01:39:28;1.27;;;0.70;;
23712;SDS011;12035;49.978;8.298;2022-09-03T01:44:38;1.10;;;0.63;;
23712;SDS011;12035;49.978;8.298;2022-09-03T01:50:02;1.48;;;0.80;;
23712;SDS011;12035;49.978;8.298;2022-09-03T01:55:06;2.33;;;0.98;;
23712;SDS011;12035;49.978;8.298;2022-09-03T02:00:18;3.40;;;0.77;;
23712;SDS011;12035;49.978;8.298;2022-09-03T02:05:17;2.10;;;0.70;;
23712;SDS011;12035;49.978;8.298;2022-09-03T02:10:19;2.53;;;0.80;;
23712;SDS011;12035;49.978;8.298;2022-09-03T02:15:23;1.17;;;0.70;;
23712;SDS011;12035;49.978;8.298;2022-09-03T02:20:22;1.00;;;0.60;;
23712;SDS011;12035;49.978;8.298;2022-09-03T02:25:23;2.58;;;0.80;;
23712;SDS011;12035;49.978;8.298;2022-09-03T02:30:27;4.47;;;1.10;;
23712;SDS011;12035;49.978;8.298;2022-09-03T02:35:24;3.60;;;0.75;;
23712;SDS011;12035;49.978;8.298;2022-09-03T02:40:22;1.08;;;0.80;;
23712;SDS011;12035;49.978;8.298;2022-09-03T02:50:21;1.80;;;0.90;;
23712;SDS011;12035;49.978;8.298;2022-09-03T02:55:20;1.55;;;0.75;;
23712;SDS011;12035;49.978;8.298;2022-09-03T03:00:17;1.75;;;0.88;;
23712;SDS011;12035;49.978;8.298;2022-09-03T03:10:39;2.42;;;0.80;;
23712;SDS011;12035;49.978;8.298;2022-09-03T03:15:36;3.00;;;0.80;;
23712;SDS011;12035;49.978;8.298;2022-09-03T03:20:35;1.60;;;0.80;;
23712;SDS011;12035;49.978;8.298;2022-09-03T03:25:32;1.25;;;0.70;;
23712;SDS011;12035;49.978;8.298;2022-09-03T03:30:31;2.33;;;0.80;;
23712;SDS011;12035;49.978;8.298;2022-09-03T03:35:29;1.80;;;0.80;;
23712;SDS011;12035;49.978;8.298;2022-09-03T03:40:27;1.58;;;0.85;;
23712;SDS011;12035;49.978;8.298;2022-09-03T03:45:25;1.88;;;0.65;;
23712;SDS011;12035;49.978;8.298;2022-09-03T03:50:22;2.17;;;0.70;;
23712;SDS011;12035;49.978;8.298;2022-09-03T03:55:19;1.75;;;0.80;;
23712;SDS011;12035;49.978;8.298;2022-09-03T04:00:18;1.77;;;0.82;;
23712;SDS011;12035;49.978;8.298;2022-09-03T04:05:15;1.60;;;0.93;;
23712;SDS011;12035;49.978;8.298;2022-09-03T04:15:09;1.95;;;0.85;;
23712;SDS011;12035;49.978;8.298;2022-09-03T04:20:08;2.60;;;1.13;;
23712;SDS011;12035;49.978;8.298;2022-09-03T04:25:05;1.52;;;0.60;;
23712;SDS011;12035;49.978;8.298;2022-09-03T04:30:04;1.92;;;0.82;;
23712;SDS011;12035;49.978;8.298;2022-09-03T04:35:03;4.05;;;0.90;;
23712;SDS011;12035;49.978;8.298;2022-09-03T04:40:02;1.65;;;0.90;;
23712;SDS011;12035;49.978;8.298;2022-09-03T04:45:00;2.40;;;0.65;;
23712;SDS011;12035;49.978;8.298;2022-09-03T04:49:58;2.33;;;0.80;;
23712;SDS011;12035;49.978;8.298;2022-09-03T04:54:56;2.20;;;1.08;;
23712;SDS011;12035;49.978;8.298;2022-09-03T05:04:51;1.25;;;0.68;;
23712;SDS011;12035;49.978;8.298;2022-09-03T05:09:48;1.23;;;0.75;;
23712;SDS011;12035;49.978;8.298;2022-09-03T05:19:43;1.42;;;0.77;;
23712;SDS011;12035;49.978;8.298;2022-09-03T05:24:40;2.00;;;0.88;;
23712;SDS011;12035;49.978;8.298;2022-09-03T05:29:37;2.65;;;0.80;;
23712;SDS011;12035;49.978;8.298;2022-09-03T05:34:35;2.40;;;0.90;;
23712;SDS011;12035;49.978;8.298;2022-09-03T05:39:33;6.53;;;0.80;;
23712;SDS011;12035;49.978;8.298;2022-09-03T05:44:30;3.17;;;0.93;;
23712;SDS011;12035;49.978;8.298;2022-09-03T05:54:24;1.63;;;0.82;;
23712;SDS011;12035;49.978;8.298;2022-09-03T06:04:19;2.78;;;0.80;;
23712;SDS011;12035;49.978;8.298;2022-09-03T06:09:17;1.65;;;1.05;;
23712;SDS011;12035;49.978;8.298;2022-09-03T06:14:16;2.10;;;0.88;;
23712;SDS011;12035;49.978;8.298;2022-09-03T06:19:15;1.48;;;0.80;;
23712;SDS011;12035;49.978;8.298;2022-09-03T06:24:14;6.07;;;0.90;;
23712;SDS011;12035;49.978;8.298;2022-09-03T06:29:14;2.75;;;0.90;;
23712;SDS011;12035;49.978;8.298;2022-09-03T06:34:14;7.85;;;1.40;;
23712;SDS011;12035;49.978;8.298;2022-09-03T06:39:38;3.20;;;0.90;;
23712;SDS011;12035;49.978;8.298;2022-09-03T06:44:36;1.55;;;0.90;;
23712;SDS011;12035;49.978;8.298;2022-09-03T06:49:35;1.55;;;0.90;;
23712;SDS011;12035;49.978;8.298;2022-09-03T06:54:32;1.63;;;0.90;;
23712;SDS011;12035;49.978;8.298;2022-09-03T07:04:26;1.20;;;0.80;;
23712;SDS011;12035;49.978;8.298;2022-09-03T07:09:25;2.17;;;1.10;;
23712;SDS011;12035;49.978;8.298;2022-09-03T07:14:22;2.90;;;0.95;;
23712;SDS011;12035;49.978;8.298;2022-09-03T07:19:19;2.55;;;1.25;;
23712;SDS011;12035;49.978;8.298;2022-09-03T07:24:17;2.50;;;0.90;;
23712;SDS011;12035;49.978;8.298;2022-09-03T07:29:17;2.83;;;1.10;;
23712;SDS011;12035;49.978;8.298;2022-09-03T07:34:15;3.88;;;1.40;;
23712;SDS011;12035;49.978;8.298;2022-09-03T07:39:12;2.58;;;1.20;;
23712;SDS011;12035;49.978;8.298;2022-09-03T07:44:10;3.72;;;1.10;;
23712;SDS011;12035;49.978;8.298;2022-09-03T07:49:11;2.55;;;1.13;;
23712;SDS011;12035;49.978;8.298;2022-09-03T07:54:08;2.90;;;1.13;;
23712;SDS011;12035;49.978;8.298;2022-09-03T07:59:06;5.20;;;1.38;;
23712;SDS011;12035;49.978;8.298;2022-09-03T08:04:05;7.32;;;1.55;;
23712;SDS011;12035;49.978;8.298;2022-09-03T08:09:05;6.05;;;1.52;;
23712;SDS011;12035;49.978;8.298;2022-09-03T08:14:06;5.38;;;1.40;;
23712;SDS011;12035;49.978;8.298;2022-09-03T08:19:04;6.05;;;1.73;;
23712;SDS011;12035;49.978;8.298;2022-09-03T08:24:01;3.72;;;1.90;;
23712;SDS011;12035;49.978;8.298;2022-09-03T08:29:01;4.53;;;1.30;;
23712;SDS011;12035;49.978;8.298;2022-09-03T08:34:00;2.67;;;1.30;;
23712;SDS011;12035;49.978;8.298;2022-09-03T08:39:01;3.72;;;1.50;;
23712;SDS011;12035;49.978;8.298;2022-09-03T08:44:08;1.83;;;1.00;;
23712;SDS011;12035;49.978;8.298;2022-09-03T08:49:19;3.75;;;1.00;;
23712;SDS011;12035;49.978;8.298;2022-09-03T08:54:24;2.60;;;1.20;;
23712;SDS011;12035;49.978;8.298;2022-09-03T08:59:25;3.08;;;1.30;;
23712;SDS011;12035;49.978;8.298;2022-09-03T09:04:29;2.78;;;1.27;;
23712;SDS011;12035;49.978;8.298;2022-09-03T09:09:42;4.70;;;1.15;;
23712;SDS011;12035;49.978;8.298;2022-09-03T09:14:49;5.05;;;1.80;;
23712;SDS011;12035;49.978;8.298;2022-09-03T09:20:04;4.28;;;1.70;;
23712;SDS011;12035;49.978;8.298;2022-09-03T09:25:08;3.38;;;1.23;;
23712;SDS011;12035;49.978;8.298;2022-09-03T09:30:10;2.63;;;1.40;;
23712;SDS011;12035;49.978;8.298;2022-09-03T09:35:12;5.90;;;1.30;;
23712;SDS011;12035;49.978;8.298;2022-09-03T09:40:21;3.83;;;1.60;;
23712;SDS011;12035;49.978;8.298;2022-09-03T09:45:21;2.83;;;1.40;;
23712;SDS011;12035;49.978;8.298;2022-09-03T09:50:19;2.10;;;1.63;;
23712;SDS011;12035;49.978;8.298;2022-09-03T09:55:18;2.45;;;1.48;;
23712;SDS011;12035;49.978;8.298;2022-09-03T10:00:17;2.85;;;1.40;;
23712;SDS011;12035;49.978;8.298;2022-09-03T10:05:19;3.55;;;1.50;;
23712;SDS011;12035;49.978;8.298;2022-09-03T10:10:20;2.42;;;1.42;;
23712;SDS011;12035;49.978;8.298;2022-09-03T10:15:21;2.78;;;1.40;;
23712;SDS011;12035;49.978;8.298;2022-09-03T10:20:30;3.22;;;1.45;;
23712;SDS011;12035;49.978;8.298;2022-09-03T10:25:37;3.27;;;1.80;;
23712;SDS011;12035;49.978;8.298;2022-09-03T10:30:53;2.85;;;1.50;;
23712;SDS011;12035;49.978;8.298;2022-09-03T10:36:05;3.72;;;1.83;;
23712;SDS011;12035;49.978;8.298;2022-09-03T10:41:18;4.47;;;1.98;;
23712;SDS011;12035;49.978;8.298;2022-09-03T10:46:30;2.50;;;1.60;;
23712;SDS011;12035;49.978;8.298;2022-09-03T10:51:41;2.80;;;1.80;;
23712;SDS011;12035;49.978;8.298;2022-09-03T10:56:45;3.78;;;1.80;;
23712;SDS011;12035;49.978;8.298;2022-09-03T11:01:54;3.17;;;1.63;;
23712;SDS011;12035;49.978;8.298;2022-09-03T11:07:16;3.78;;;1.75;;
23712;SDS011;12035;49.978;8.298;2022-09-03T11:12:20;3.42;;;1.95;;
23712;SDS011;12035;49.978;8.298;2022-09-03T11:17:22;3.00;;;1.83;;
23712;SDS011;12035;49.978;8.298;2022-09-03T11:22:24;3.90;;;2.30;;
23712;SDS011;12035;49.978;8.298;2022-09-03T11:27:29;4.13;;;2.00;;
23712;SDS011;12035;49.978;8.298;2022-09-03T11:32:40;3.22;;;1.92;;
23712;SDS011;12035;49.978;8.298;2022-09-03T11:37:46;3.80;;;2.30;;
23712;SDS011;12035;49.978;8.298;2022-09-03T11:42:51;5.78;;;1.67;;
23712;SDS011;12035;49.978;8.298;2022-09-03T11:47:48;2.92;;;1.65;;
23712;SDS011;12035;49.978;8.298;2022-09-03T11:52:46;4.85;;;1.80;;
23712;SDS011;12035;49.978;8.298;2022-09-03T11:57:46;9.05;;;2.60;;
23712;SDS011;12035;49.978;8.298;2022-09-03T12:02:44;3.47;;;2.00;;
23712;SDS011;12035;49.978;8.298;2022-09-03T12:13:11;3.53;;;2.10;;
23712;SDS011;12035;49.978;8.298;2022-09-03T12:18:31;3.97;;;1.80;;
23712;SDS011;12035;49.978;8.298;2022-09-03T12:23:32;1.98;;;1.38;;
23712;SDS011;12035;49.978;8.298;2022-09-03T12:28:33;3.47;;;1.73;;
23712;SDS011;12035;49.978;8.298;2022-09-03T12:33:33;3.75;;;1.70;;
23712;SDS011;12035;49.978;8.298;2022-09-03T12:38:30;2.30;;;1.30;;
23712;SDS011;12035;49.978;8.298;2022-09-03T12:43:28;1.70;;;1.13;;
23712;SDS011;12035;49.978;8.298;2022-09-03T12:48:25;3.05;;;1.60;;
23712;SDS011;12035;49.978;8.298;2022-09-03T12:53:24;4.22;;;1.33;;
23712;SDS011;12035;49.978;8.298;2022-09-03T12:58:24;4.25;;;1.38;;
23712;SDS011;12035;49.978;8.298;2022-09-03T13:03:27;2.60;;;1.13;;
23712;SDS011;12035;49.978;8.298;2022-09-03T13:08:31;1.88;;;1.10;;
23712;SDS011;12035;49.978;8.298;2022-09-03T13:13:35;4.03;;;1.23;;
23712;SDS011;12035;49.978;8.298;2022-09-03T13:18:36;1.55;;;0.90;;
23712;SDS011;12035;49.978;8.298;2022-09-03T13:23:44;2.47;;;1.25;;
23712;SDS011;12035;49.978;8.298;2022-09-03T13:34:24;1.57;;;1.00;;
23712;SDS011;12035;49.978;8.298;2022-09-03T13:39:29;2.95;;;1.05;;
23712;SDS011;12035;49.978;8.298;2022-09-03T13:44:35;3.60;;;1.00;;
23712;SDS011;12035;49.978;8.298;2022-09-03T13:49:41;2.17;;;1.10;;
23712;SDS011;12035;49.978;8.298;2022-09-03T13:55:06;3.05;;;1.15;;
23712;SDS011;12035;49.978;8.298;2022-09-03T14:00:08;2.85;;;1.15;;
23712;SDS011;12035;49.978;8.298;2022-09-03T14:05:08;2.17;;;1.20;;
23712;SDS011;12035;49.978;8.298;2022-09-03T14:10:18;3.60;;;1.40;;
23712;SDS011;12035;49.978;8.298;2022-09-03T14:15:21;2.85;;;1.25;;
23712;SDS011;12035;49.978;8.298;2022-09-03T14:20:24;2.10;;;1.40;;
23712;SDS011;12035;49.978;8.298;2022-09-03T14:25:26;2.30;;;1.65;;
23712;SDS011;12035;49.978;8.298;2022-09-03T14:30:27;2.60;;;1.50;;
23712;SDS011;12035;49.978;8.298;2022-09-03T14:46:17;2.38;;;1.52;;
23712;SDS011;12035;49.978;8.298;2022-09-03T14:51:30;2.55;;;1.45;;
23712;SDS011;12035;49.978;8.298;2022-09-03T14:56:48;3.88;;;1.40;;
23712;SDS011;12035;49.978;8.298;2022-09-03T15:07:15;2.35;;;1.10;;
23712;SDS011;12035;49.978;8.298;2022-09-03T15:12:23;1.75;;;1.27;;
23712;SDS011;12035;49.978;8.298;2022-09-03T15:17:31;2.78;;;1.38;;
23712;SDS011;12035;49.978;8.298;2022-09-03T15:22:59;1.80;;;1.35;;
23712;SDS011;12035;49.978;8.298;2022-09-03T15:28:14;2.00;;;1.20;;
23712;SDS011;12035;49.978;8.298;2022-09-03T15:33:22;3.08;;;1.50;;
23712;SDS011;12035;49.978;8.298;2022-09-03T15:38:34;2.25;;;1.40;;
23712;SDS011;12035;49.978;8.298;2022-09-03T15:43:41;1.75;;;1.30;;
23712;SDS011;12035;49.978;8.298;2022-09-03T15:48:44;2.50;;;1.23;;
23712;SDS011;12035;49.978;8.298;2022-09-03T15:53:48;2.67;;;1.15;;
23712;SDS011;12035;49.978;8.298;2022-09-03T15:58:56;2.50;;;1.17;;
23712;SDS011;12035;49.978;8.298;2022-09-03T16:04:01;2.22;;;1.20;;
23712;SDS011;12035;49.978;8.298;2022-09-03T16:09:17;2.83;;;1.10;;
23712;SDS011;12035;49.978;8.298;2022-09-03T16:14:27;1.23;;;0.85;;
23712;SDS011;12035;49.978;8.298;2022-09-03T16:19:33;3.63;;;0.50;;
23712;SDS011;12035;49.978;8.298;2022-09-03T16:24:37;0.30;;;0.30;;
23712;SDS011;12035;49.978;8.298;2022-09-03T16:29:44;0.68;;;0.40;;
23712;SDS011;12035;49.978;8.298;2022-09-03T16:35:01;0.80;;;0.40;;
23712;SDS011;12035;49.978;8.298;2022-09-03T16:40:13;1.80;;;0.50;;
23712;SDS011;12035;49.978;8.298;2022-09-03T16:45:18;0.75;;;0.32;;
23712;SDS011;12035;49.978;8.298;2022-09-03T16:50:30;1.55;;;0.43;;
23712;SDS011;12035;49.978;8.298;2022-09-03T16:55:50;2.42;;;1.13;;
23712;SDS011;12035;49.978;8.298;2022-09-03T17:01:15;1.17;;;0.50;;
23712;SDS011;12035;49.978;8.298;2022-09-03T17:06:28;1.08;;;0.40;;
23712;SDS011;12035;49.978;8.298;2022-09-03T17:11:41;1.10;;;0.60;;
23712;SDS011;12035;49.978;8.298;2022-09-03T17:16:54;1.73;;;0.43;;
23712;SDS011;12035;49.978;8.298;2022-09-03T17:22:05;2.05;;;0.60;;
23712;SDS011;12035;49.978;8.298;2022-09-03T17:32:52;1.42;;;0.50;;
23712;SDS011;12035;49.978;8.298;2022-09-03T17:38:49;1.02;;;0.60;;
23712;SDS011;12035;49.978;8.298;2022-09-03T17:44:22;1.88;;;0.73;;
23712;SDS011;12035;49.978;8.298;2022-09-03T17:49:40;1.50;;;0.52;;
23712;SDS011;12035;49.978;8.298;2022-09-03T17:54:42;1.60;;;0.77;;
23712;SDS011;12035;49.978;8.298;2022-09-03T17:59:45;2.17;;;0.90;;
23712;SDS011;12035;49.978;8.298;2022-09-03T18:04:50;1.60;;;0.70;;
23712;SDS011;12035;49.978;8.298;2022-09-03T18:09:54;2.55;;;0.57;;
23712;SDS011;12035;49.978;8.298;2022-09-03T18:15:03;1.30;;;0.60;;
23712;SDS011;12035;49.978;8.298;2022-09-03T18:20:09;1.08;;;0.55;;
23712;SDS011;12035;49.978;8.298;2022-09-03T18:25:26;1.05;;;0.50;;
23712;SDS011;12035;49.978;8.298;2022-09-03T18:30:42;1.02;;;0.40;;
23712;SDS011;12035;49.978;8.298;2022-09-03T18:35:58;1.25;;;0.60;;
23712;SDS011;12035;49.978;8.298;2022-09-03T18:41:15;1.42;;;0.80;;
23712;SDS011;12035;49.978;8.298;2022-09-03T18:46:55;0.35;;;0.30;;
23712;SDS011;12035;49.978;8.298;2022-09-03T18:52:19;1.73;;;0.57;;
23712;SDS011;12035;49.978;8.298;2022-09-03T18:57:43;3.55;;;0.60;;
23712;SDS011;12035;49.978;8.298;2022-09-03T19:03:15;1.38;;;0.60;;
23712;SDS011;12035;49.978;8.298;2022-09-03T19:08:59;2.97;;;0.60;;
23712;SDS011;12035;49.978;8.298;2022-09-03T19:14:25;0.68;;;0.40;;
23712;SDS011;12035;49.978;8.298;2022-09-03T19:19:53;1.40;;;0.60;;
23712;SDS011;12035;49.978;8.298;2022-09-03T19:25:17;1.50;;;0.70;;
23712;SDS011;12035;49.978;8.298;2022-09-03T19:30:35;1.48;;;0.75;;
23712;SDS011;12035;49.978;8.298;2022-09-03T19:36:07;0.90;;;0.60;;
23712;SDS011;12035;49.978;8.298;2022-09-03T19:41:30;1.05;;;0.60;;
23712;SDS011;12035;49.978;8.298;2022-09-03T19:46:54;0.90;;;0.50;;
23712;SDS011;12035;49.978;8.298;2022-09-03T19:52:12;0.68;;;0.50;;
23712;SDS011;12035;49.978;8.298;2022-09-03T19:57:39;1.30;;;0.80;;
23712;SDS011;12035;49.978;8.298;2022-09-03T20:02:57;1.02;;;0.60;;
23712;SDS011;12035;49.978;8.298;2022-09-03T20:08:14;1.10;;;0.70;;
23712;SDS011;12035;49.978;8.298;2022-09-03T20:13:31;3.30;;;1.33;;
23712;SDS011;12035;49.978;8.298;2022-09-03T20:18:48;1.58;;;1.00;;
23712;SDS011;12035;49.978;8.298;2022-09-03T20:23:56;1.73;;;0.90;;
23712;SDS011;12035;49.978;8.298;2022-09-03T20:34:52;1.63;;;1.05;;
23712;SDS011;12035;49.978;8.298;2022-09-03T20:40:02;1.88;;;0.98;;
23712;SDS011;12035;49.978;8.298;2022-09-03T20:45:14;2.10;;;1.25;;
23712;SDS011;12035;49.978;8.298;2022-09-03T20:50:20;2.00;;;1.10;;
23712;SDS011;12035;49.978;8.298;2022-09-03T20:55:38;1.70;;;0.90;;
23712;SDS011;12035;49.978;8.298;2022-09-03T21:00:41;2.05;;;1.10;;
23712;SDS011;12035;49.978;8.298;2022-09-03T21:05:44;1.75;;;0.90;;
23712;SDS011;12035;49.978;8.298;2022-09-03T21:10:53;3.08;;;1.00;;
23712;SDS011;12035;49.978;8.298;2022-09-03T21:15:56;2.95;;;1.10;;
23712;SDS011;12035;49.978;8.298;2022-09-03T21:21:03;2.55;;;1.05;;
23712;SDS011;12035;49.978;8.298;2022-09-03T21:26:12;1.70;;;1.08;;
23712;SDS011;12035;49.978;8.298;2022-09-03T21:31:17;2.47;;;1.00;;
23712;SDS011;12035;49.978;8.298;2022-09-03T21:36:23;2.33;;;0.98;;
23712;SDS011;12035;49.978;8.298;2022-09-03T21:41:28;1.83;;;1.10;;
23712;SDS011;12035;49.978;8.298;2022-09-03T21:46:31;1.88;;;0.98;;
23712;SDS011;12035;49.978;8.298;2022-09-03T21:51:34;2.47;;;1.15;;
23712;SDS011;12035;49.978;8.298;2022-09-03T21:56:46;4.50;;;1.20;;
23712;SDS011;12035;49.978;8.298;2022-09-03T22:01:59;2.17;;;1.25;;
23712;SDS011;12035;49.978;8.298;2022-09-03T22:07:05;2.15;;;1.42;;
23712;SDS011;12035;49.978;8.298;2022-09-03T22:17:13;2.33;;;1.08;;
23712;SDS011;12035;49.978;8.298;2022-09-03T22:22:17;3.13;;;1.30;;
23712;SDS011;12035;49.978;8.298;2022-09-03T22:27:22;2.58;;;1.20;;
23712;SDS011;12035;49.978;8.298;2022-09-03T22:32:33;2.13;;;1.20;;
23712;SDS011;12035;49.978;8.298;2022-09-03T22:37:53;1.58;;;1.08;;
23712;SDS011;12035;49.978;8.298;2022-09-03T22:43:17;2.10;;;1.33;;
23712;SDS011;12035;49.978;8.298;2022-09-03T22:48:33;2.22;;;1.30;;
23712;SDS011;12035;49.978;8.298;2022-09-03T22:54:03;2.00;;;1.10;;
23712;SDS011;12035;49.978;8.298;2022-09-03T22:59:17;2.42;;;1.27;;
23712;SDS011;12035;49.978;8.298;2022-09-03T23:04:21;2.65;;;1.08;;
23712;SDS011;12035;49.978;8.298;2022-09-03T23:09:26;4.57;;;1.30;;
23712;SDS011;12035;49.978;8.298;2022-09-03T23:14:31;1.75;;;1.15;;
23712;SDS011;12035;49.978;8.298;2022-09-03T23:19:45;2.30;;;1.27;;
23712;SDS011;12035;49.978;8.298;2022-09-03T23:24:51;2.33;;;1.00;;
23712;SDS011;12035;49.978;8.298;2022-09-03T23:29:53;3.05;;;1.40;;
23712;SDS011;12035;49.978;8.298;2022-09-03T23:34:53;1.83;;;0.93;;
23712;SDS011;12035;49.978;8.298;2022-09-03T23:40:02;2.15;;;1.33;;
23712;SDS011;12035;49.978;8.298;2022-09-03T23:45:24;2.88;;;1.55;;
23712;SDS011;12035;49.978;8.298;2022-09-03T23:55:36;1.90;;;1.30;;
